Time;durP1;ratioP1;P1;durP2;ratioP2;P2;SDS_P1;SDS_P2;PMS_P1;PMS_P2;Temp;Humidity;BMP_temperature;BMP_pressure;BME280_temperature;BME280_humidity;BME280_pressure;Samples;Min_cycle;Max_cycle;Signal;HPM_P1;HPM_P2
2021/10/02 00:31:44;;;;;;;;;;;;;;;20.95;61.03;99979.75;2074608;28;19917;-40
2021/10/02 00:35:31;;;;;;;;;;;;;;;20.94;61.29;99986.22;2072240;28;20180;-37
2021/10/02 00:37:56;;;;;;;;;;;;;;;20.95;61.13;99987.13;2072751;28;20639;-37
2021/10/02 00:45:13;;;;;;;;;;;;;;;20.94;61.22;99979.91;2073070;28;20194;-40
2021/10/02 00:46:14;;;;;;;;;;;;;;;20.94;61.22;99977.16;2073149;28;20203;-40
2021/10/02 00:47:17;;;;;;;;;;;;;;;20.94;61.45;99985.38;2074391;28;20231;-40
2021/10/02 00:48:18;;;;;;;;;;;;;;;20.93;61.26;99976.31;2066122;28;19924;-40
2021/10/02 00:49:18;;;;;;;;;;;;;;;20.93;61.08;99970.84;2067825;28;20203;-37
2021/10/02 00:50:19;;;;;;;;;;;;;;;20.93;61.27;99972.72;2075167;28;19924;-37
2021/10/02 00:51:20;;;;;;;;;;;;;;;20.93;61.14;99968.09;2074432;28;19996;-37
2021/10/02 00:52:21;;;;;;;;;;;;;;;20.93;61.33;99973.56;2071376;28;19939;-37
2021/10/02 00:53:22;;;;;;;;;;;;;;;20.93;61.27;99972.72;2083072;28;19924;-37
2021/10/02 00:54:22;;;;;;;;;;;;;;;20.93;61.33;99973.56;2077378;28;19923;-37
2021/10/02 00:55:23;;;;;;;;;;;;;;;20.91;61.34;99969.28;2074123;28;19928;-37
2021/10/02 00:56:23;;;;;;;;;;;;;;;20.92;61.13;99970.97;2075215;28;19948;-37
2021/10/02 00:57:23;;;;;;;;;;;;;;;20.92;61.15;99960.91;2074027;28;19920;-37
2021/10/02 00:58:24;;;;;;;;;;;;;;;20.92;61.28;99969.13;2073872;28;19918;-37
2021/10/02 00:59:29;;;;;;;;;;;;;;;20.91;61.09;99970.13;2076174;28;19921;-37
2021/10/02 01:00:29;;;;;;;;;;;;;;;20.91;61.21;99967.38;2073332;28;19954;-37
2021/10/02 01:01:44;;;;;;;;;;;;;;;20.91;61.25;99975.63;2075019;28;19928;-37
2021/10/02 01:02:52;;;;;;;;;;;;;;;20.91;61.08;99970.13;2076685;28;19956;-37
2021/10/02 01:03:59;;;;;;;;;;;;;;;20.91;61.13;99964.66;2074819;28;19963;-37
2021/10/02 01:05:19;;;;;;;;;;;;;;;20.90;61.05;99962.94;2076592;28;19924;-37
2021/10/02 01:06:44;;;;;;;;;;;;;;;20.91;61.09;99967.38;2076611;28;20027;-37
2021/10/02 01:08:03;;;;;;;;;;;;;;;20.92;61.42;99960.03;2075587;28;20330;-37
2021/10/02 01:09:10;;;;;;;;;;;;;;;20.92;61.15;99970.97;2073308;28;19923;-40
2021/10/02 01:10:26;;;;;;;;;;;;;;;20.90;61.06;99960.22;2070728;28;20007;-40
2021/10/02 01:11:38;;;;;;;;;;;;;;;20.90;61.42;99957.47;2072764;28;20427;-40
2021/10/02 01:12:50;;;;;;;;;;;;;;;20.91;61.23;99963.81;2074587;28;19924;-40
2021/10/02 01:13:58;;;;;;;;;;;;;;;20.92;61.25;99957.28;2070820;28;19924;-40
2021/10/02 01:15:03;;;;;;;;;;;;;;;20.91;61.22;99964.66;2070673;28;19928;-40
2021/10/02 01:16:16;;;;;;;;;;;;;;;20.92;61.16;99962.75;2072960;28;19924;-40
2021/10/02 01:17:23;;;;;;;;;;;;;;;20.93;61.28;99961.75;2070198;28;20002;-40
2021/10/02 01:18:33;;;;;;;;;;;;;;;20.92;61.21;99966.38;2074332;28;19923;-40
2021/10/02 01:19:50;;;;;;;;;;;;;;;20.91;61.20;99964.66;2073502;28;20170;-37
2021/10/02 01:21:09;;;;;;;;;;;;;;;20.91;61.26;99961.91;2068618;28;19921;-37
2021/10/02 01:22:28;;;;;;;;;;;;;;;20.91;61.04;99961.91;2069577;28;19956;-37
2021/10/02 01:23:34;;;;;;;;;;;;;;;20.91;61.20;99959.16;2069112;28;20660;-36
2021/10/02 01:24:37;;;;;;;;;;;;;;;20.91;61.15;99958.31;2078438;28;20261;-37
2021/10/02 01:25:56;;;;;;;;;;;;;;;20.91;61.37;99955.56;2076547;28;19920;-37
2021/10/02 01:27:16;;;;;;;;;;;;;;;20.91;61.23;99955.56;2075466;28;19917;-37
2021/10/02 01:28:18;;;;;;;;;;;;;;;20.90;61.32;99957.47;2077789;28;19924;-37
2021/10/02 01:29:19;;;;;;;;;;;;;;;20.91;61.01;99953.69;2079197;28;19920;-37
2021/10/02 01:31:53;;;;;;;;;;;;;;;20.90;61.21;99946.50;2055317;28;19917;-37
2021/10/02 01:33:05;;;;;;;;;;;;;;;20.90;61.00;99945.66;2076848;28;20224;-37
2021/10/02 01:34:18;;;;;;;;;;;;;;;20.91;61.27;99941.88;2072620;28;19924;-37
2021/10/02 01:37:06;;;;;;;;;;;;;;;20.90;61.14;99930.06;2050025;28;20175;-37
2021/10/02 01:47:28;;;;;;;;;;;;;;;20.89;61.23;99908.31;2074696;28;20319;-37
2021/10/02 01:48:29;;;;;;;;;;;;;;;20.90;61.02;99912.78;2076993;28;19921;-37
2021/10/02 01:49:30;;;;;;;;;;;;;;;20.89;61.15;99911.91;2068579;28;20755;-40
2021/10/02 01:50:32;;;;;;;;;;;;;;;20.89;61.07;99903.69;2074065;28;20330;-40
2021/10/02 01:51:32;;;;;;;;;;;;;;;20.89;61.10;99905.56;2073945;28;19916;-41
2021/10/02 01:52:35;;;;;;;;;;;;;;;20.88;61.26;99904.72;2072366;28;20628;-40
2021/10/02 01:53:37;;;;;;;;;;;;;;;20.88;61.25;99904.72;2074045;28;19964;-40
2021/10/02 01:54:37;;;;;;;;;;;;;;;20.89;61.20;99894.59;2076532;28;20395;-40
2021/10/02 01:55:39;;;;;;;;;;;;;;;20.90;61.02;99901.81;2074734;28;20016;-40
2021/10/02 01:56:40;;;;;;;;;;;;;;;20.88;61.07;99899.22;2077095;28;19913;-40
2021/10/02 01:57:42;;;;;;;;;;;;;;;20.90;61.21;99890.84;2076328;28;19917;-40
2021/10/02 01:58:44;;;;;;;;;;;;;;;20.88;60.99;99896.50;2076166;28;19923;-40
2021/10/02 01:59:45;;;;;;;;;;;;;;;20.89;61.10;99895.47;2074007;28;20390;-40
2021/10/02 02:00:47;;;;;;;;;;;;;;;20.89;61.34;99895.47;2074008;28;19971;-40
2021/10/02 02:01:48;;;;;;;;;;;;;;;20.89;61.07;99902.81;2067896;28;20027;-40
2021/10/02 02:02:52;;;;;;;;;;;;;;;20.89;61.11;99897.34;2066625;28;19921;-40
2021/10/02 02:03:56;;;;;;;;;;;;;;;20.89;61.18;99900.94;2075534;28;19923;-41
2021/10/02 02:04:57;;;;;;;;;;;;;;;20.88;61.00;99899.22;2075810;28;19935;-40
2021/10/02 02:05:59;;;;;;;;;;;;;;;20.88;61.18;99899.22;2081987;28;19962;-40
2021/10/02 02:06:59;;;;;;;;;;;;;;;20.88;61.35;99899.22;2067060;28;20020;-40
2021/10/02 02:08:01;;;;;;;;;;;;;;;20.88;61.26;99904.72;2064191;28;20368;-40
2021/10/02 02:09:03;;;;;;;;;;;;;;;20.88;61.15;99901.97;2077504;28;19912;-40
2021/10/02 02:10:04;;;;;;;;;;;;;;;20.89;61.09;99905.56;2071366;28;19971;-40
2021/10/02 02:11:05;;;;;;;;;;;;;;;20.88;61.00;99899.22;2074767;28;20512;-40
2021/10/02 02:12:08;;;;;;;;;;;;;;;20.88;60.94;99893.75;2076248;28;19909;-40
2021/10/02 02:13:10;;;;;;;;;;;;;;;20.88;61.22;99892.91;2074188;28;20379;-40
2021/10/02 02:14:11;;;;;;;;;;;;;;;20.88;61.15;99893.75;2069329;28;20000;-40
2021/10/02 02:15:12;;;;;;;;;;;;;;;20.88;61.20;99899.22;2071737;28;20371;-39
2021/10/02 02:16:13;;;;;;;;;;;;;;;20.88;61.04;99901.97;2076866;28;19913;-37
2021/10/02 02:17:15;;;;;;;;;;;;;;;20.88;61.24;99901.13;2076872;28;19916;-37
2021/10/02 02:18:16;;;;;;;;;;;;;;;20.88;61.13;99904.72;2075517;28;19913;-37
2021/10/02 02:19:18;;;;;;;;;;;;;;;20.87;61.30;99908.50;2075994;28;19917;-37
2021/10/02 02:20:22;;;;;;;;;;;;;;;20.87;61.14;99897.53;2074504;28;19920;-37
2021/10/02 02:21:25;;;;;;;;;;;;;;;20.88;61.11;99901.97;2072363;28;20036;-37
2021/10/02 02:22:25;;;;;;;;;;;;;;;20.87;61.17;99908.50;2077494;28;19975;-37
2021/10/02 02:23:26;;;;;;;;;;;;;;;20.88;61.08;99898.38;2074158;28;19960;-37
2021/10/02 02:24:26;;;;;;;;;;;;;;;20.88;60.99;99904.72;2075144;28;20341;-37
2021/10/02 02:25:27;;;;;;;;;;;;;;;20.87;61.08;99897.53;2074308;28;19986;-37
2021/10/02 02:26:28;;;;;;;;;;;;;;;20.87;60.88;99893.91;2070833;28;20349;-37
2021/10/02 02:27:29;;;;;;;;;;;;;;;20.87;61.26;99897.53;2074443;28;20205;-37
2021/10/02 02:28:30;;;;;;;;;;;;;;;20.86;61.14;99895.81;2073889;28;19916;-37
2021/10/02 02:29:32;;;;;;;;;;;;;;;20.87;61.20;99892.06;2073908;28;19917;-37
2021/10/02 02:30:33;;;;;;;;;;;;;;;20.86;60.86;99895.81;2076941;28;19928;-37
2021/10/02 02:31:33;;;;;;;;;;;;;;;20.87;61.18;99889.31;2071636;28;19923;-37
2021/10/02 02:32:34;;;;;;;;;;;;;;;20.86;60.86;99884.84;2073928;28;19917;-37
2021/10/02 02:33:35;;;;;;;;;;;;;;;20.86;61.14;99884.84;2071957;28;20016;-37
2021/10/02 02:34:36;;;;;;;;;;;;;;;20.87;61.00;99892.06;2071730;28;19924;-37
2021/10/02 02:35:36;;;;;;;;;;;;;;;20.87;61.21;99881.09;2073418;28;20784;-38
2021/10/02 02:36:36;;;;;;;;;;;;;;;20.87;60.91;99883.84;2069554;28;19913;-37
2021/10/02 02:37:37;;;;;;;;;;;;;;;20.87;61.08;99885.69;2072699;28;19921;-37
2021/10/02 02:38:37;;;;;;;;;;;;;;;20.86;61.05;99879.34;2077730;28;20566;-37
2021/10/02 02:39:38;;;;;;;;;;;;;;;20.86;61.18;99873.88;2073443;28;19923;-36
2021/10/02 02:40:38;;;;;;;;;;;;;;;20.85;60.91;99869.44;2074400;28;20508;-36
2021/10/02 02:41:38;;;;;;;;;;;;;;;20.86;61.17;99873.88;2062205;28;19937;-37
2021/10/02 02:42:39;;;;;;;;;;;;;;;20.86;61.14;99879.34;2069619;28;19921;-37
2021/10/02 02:43:40;;;;;;;;;;;;;;;20.86;61.05;99876.63;2065970;28;20115;-37
2021/10/02 02:44:40;;;;;;;;;;;;;;;20.86;60.98;99879.34;2061582;28;20387;-37
2021/10/02 02:45:43;;;;;;;;;;;;;;;20.86;60.89;99878.50;2074043;28;20635;-37
2021/10/02 02:46:47;;;;;;;;;;;;;;;20.86;61.08;99867.56;2076525;28;19916;-37
2021/10/02 02:48:02;;;;;;;;;;;;;;;20.86;61.11;99882.09;2075164;28;19927;-37
2021/10/02 02:49:08;;;;;;;;;;;;;;;20.85;60.99;99872.19;2073371;28;19966;-36
2021/10/02 02:50:12;;;;;;;;;;;;;;;20.86;60.96;99871.16;2075110;28;19927;-37
2021/10/02 02:51:16;;;;;;;;;;;;;;;20.85;60.81;99866.69;2072218;28;19913;-40
2021/10/02 02:52:35;;;;;;;;;;;;;;;20.86;61.03;99873.88;2072005;28;20027;-40
2021/10/02 02:53:36;;;;;;;;;;;;;;;20.85;61.06;99866.69;2072313;28;19936;-40
2021/10/02 02:54:39;;;;;;;;;;;;;;;20.86;61.06;99870.28;2078715;28;19917;-40
2021/10/02 02:55:42;;;;;;;;;;;;;;;20.86;61.11;99868.41;2073410;28;20061;-40
2021/10/02 02:56:45;;;;;;;;;;;;;;;20.86;60.81;99868.41;2074781;28;19959;-37
2021/10/02 02:57:51;;;;;;;;;;;;;;;20.86;60.96;99867.56;2074118;28;21011;-37
2021/10/02 02:58:53;;;;;;;;;;;;;;;20.86;61.07;99871.16;2070281;28;19916;-36
2021/10/02 03:00:06;;;;;;;;;;;;;;;20.86;60.88;99871.16;2073669;28;20350;-40
2021/10/02 03:01:07;;;;;;;;;;;;;;;20.86;61.12;99873.88;2074428;28;19920;-40
2021/10/02 03:02:10;;;;;;;;;;;;;;;20.85;61.05;99866.69;2071993;28;19917;-40
2021/10/02 03:03:12;;;;;;;;;;;;;;;20.85;60.92;99865.81;2073181;28;19988;-40
2021/10/02 03:04:16;;;;;;;;;;;;;;;20.85;61.09;99871.28;2076215;28;19916;-40
2021/10/02 03:05:18;;;;;;;;;;;;;;;20.85;60.81;99869.44;2075271;28;20324;-40
2021/10/02 03:06:19;;;;;;;;;;;;;;;20.85;61.04;99866.69;2074456;28;19940;-40
2021/10/02 03:07:20;;;;;;;;;;;;;;;20.85;60.99;99872.19;2075707;28;19921;-40
2021/10/02 03:08:21;;;;;;;;;;;;;;;20.85;61.03;99865.81;2075952;28;19917;-40
2021/10/02 03:09:22;;;;;;;;;;;;;;;20.85;61.05;99866.69;2075505;28;19958;-40
2021/10/02 03:10:23;;;;;;;;;;;;;;;20.84;61.07;99864.97;2072875;28;20628;-40
2021/10/02 03:11:24;;;;;;;;;;;;;;;20.85;61.00;99866.69;2071334;28;19909;-37
2021/10/02 03:12:30;;;;;;;;;;;;;;;20.85;60.83;99865.81;2069194;28;20017;-40
2021/10/02 03:13:34;;;;;;;;;;;;;;;20.85;61.08;99863.97;2074060;28;19923;-39
2021/10/02 03:14:36;;;;;;;;;;;;;;;20.84;60.96;99862.22;2074529;28;19917;-37
2021/10/02 03:15:37;;;;;;;;;;;;;;;20.85;60.82;99871.28;2074174;28;19924;-36
2021/10/02 03:16:37;;;;;;;;;;;;;;;20.85;60.96;99863.06;2076473;28;19921;-37
2021/10/02 03:17:40;;;;;;;;;;;;;;;20.85;60.97;99863.06;2075524;28;19963;-37
2021/10/02 03:18:42;;;;;;;;;;;;;;;20.85;60.82;99865.81;2076635;28;19917;-37
2021/10/02 03:19:43;;;;;;;;;;;;;;;20.85;60.89;99863.97;2068777;28;19916;-36
2021/10/02 03:20:48;;;;;;;;;;;;;;;20.85;61.08;99861.22;2075172;28;20215;-37
2021/10/02 03:21:52;;;;;;;;;;;;;;;20.84;60.82;99859.50;2078437;28;19921;-36
2021/10/02 03:22:54;;;;;;;;;;;;;;;20.85;61.04;99854.84;2071148;28;19917;-40
2021/10/02 03:23:55;;;;;;;;;;;;;;;20.84;61.05;99859.50;2067231;28;19970;-40
2021/10/02 03:24:57;;;;;;;;;;;;;;;20.84;61.09;99851.28;2069614;28;20453;-40
2021/10/02 03:25:58;;;;;;;;;;;;;;;20.84;60.81;99859.50;2076108;28;20234;-40
2021/10/02 03:27:02;;;;;;;;;;;;;;;20.84;60.82;99861.38;2076818;28;19947;-40
2021/10/02 03:28:03;;;;;;;;;;;;;;;20.84;61.04;99858.63;2073654;28;19925;-40
2021/10/02 03:29:03;;;;;;;;;;;;;;;20.84;60.94;99859.50;2073260;28;19923;-40
2021/10/02 03:30:05;;;;;;;;;;;;;;;20.84;60.76;99859.50;2077820;28;19951;-40
2021/10/02 03:31:06;;;;;;;;;;;;;;;20.85;60.81;99852.13;2074027;28;20171;-40
2021/10/02 03:32:07;;;;;;;;;;;;;;;20.84;61.09;99854.00;2075431;28;19923;-40
2021/10/02 03:33:08;;;;;;;;;;;;;;;20.84;60.99;99855.91;2074266;28;19924;-40
2021/10/02 03:34:09;;;;;;;;;;;;;;;20.84;60.98;99851.28;2078197;28;19923;-40
2021/10/02 03:35:10;;;;;;;;;;;;;;;20.83;60.74;99857.78;2075607;28;19923;-40
2021/10/02 03:36:10;;;;;;;;;;;;;;;20.83;60.84;99855.03;2076898;28;19928;-40
2021/10/02 03:37:11;;;;;;;;;;;;;;;20.83;60.94;99857.78;2076383;28;20342;-40
2021/10/02 03:38:11;;;;;;;;;;;;;;;20.83;61.15;99852.31;2076494;28;19917;-40
2021/10/02 03:39:12;;;;;;;;;;;;;;;20.82;61.05;99850.56;2075853;28;19917;-40
2021/10/02 03:40:12;;;;;;;;;;;;;;;20.83;61.09;99848.72;2076979;28;19928;-40
2021/10/02 03:41:13;;;;;;;;;;;;;;;20.84;60.92;99842.19;2075407;28;20346;-40
2021/10/02 03:42:14;;;;;;;;;;;;;;;20.83;60.83;99846.81;2076148;28;19975;-40
2021/10/02 03:43:14;;;;;;;;;;;;;;;20.83;61.15;99846.81;2075006;28;20419;-40
2021/10/02 03:44:15;;;;;;;;;;;;;;;20.83;61.08;99846.81;2075458;28;20616;-40
2021/10/02 03:45:16;;;;;;;;;;;;;;;20.82;60.85;99844.25;2072765;28;20323;-41
2021/10/02 03:46:16;;;;;;;;;;;;;;;20.82;61.07;99845.09;2073708;28;20262;-40
2021/10/02 03:47:17;;;;;;;;;;;;;;;20.82;60.94;99839.63;2073924;28;19947;-40
2021/10/02 03:48:18;;;;;;;;;;;;;;;20.82;60.92;99844.25;2074569;28;19924;-40
2021/10/02 03:49:18;;;;;;;;;;;;;;;20.82;61.14;99842.34;2072513;28;19951;-40
2021/10/02 03:50:19;;;;;;;;;;;;;;;20.83;61.06;99835.88;2078481;28;19960;-40
2021/10/02 03:51:19;;;;;;;;;;;;;;;20.83;60.78;99840.50;2068170;28;20341;-40
2021/10/02 03:52:20;;;;;;;;;;;;;;;20.84;61.14;99847.69;2062856;28;19910;-40
2021/10/02 03:53:20;;;;;;;;;;;;;;;20.82;61.07;99834.13;2071406;28;20324;-40
2021/10/02 03:54:21;;;;;;;;;;;;;;;20.82;61.07;99845.09;2073980;28;19916;-40
2021/10/02 03:55:21;;;;;;;;;;;;;;;20.82;60.78;99845.09;2077831;28;19915;-40
2021/10/02 03:56:22;;;;;;;;;;;;;;;20.82;60.90;99834.13;2074355;28;20386;-40
2021/10/02 03:57:22;;;;;;;;;;;;;;;20.82;61.01;99834.13;2075972;28;19927;-40
2021/10/02 03:58:22;;;;;;;;;;;;;;;20.82;60.90;99834.13;2077751;28;19909;-40
2021/10/02 03:59:23;;;;;;;;;;;;;;;20.82;60.75;99828.66;2075457;28;19915;-40
2021/10/02 04:00:24;;;;;;;;;;;;;;;20.83;61.01;99829.53;2065516;28;20359;-40
2021/10/02 04:01:24;;;;;;;;;;;;;;;20.82;60.90;99825.91;2068727;28;20227;-40
2021/10/02 04:02:24;;;;;;;;;;;;;;;20.82;60.79;99827.81;2069401;28;19921;-40
2021/10/02 04:03:25;;;;;;;;;;;;;;;20.82;60.77;99822.31;2058892;28;19963;-37
2021/10/02 04:04:25;;;;;;;;;;;;;;;20.82;60.92;99833.28;2068845;28;19917;-37
2021/10/02 04:05:25;;;;;;;;;;;;;;;20.82;60.74;99834.13;2075409;28;20557;-37
2021/10/02 04:06:26;;;;;;;;;;;;;;;20.82;60.83;99833.28;2077354;28;20408;-37
2021/10/02 04:07:26;;;;;;;;;;;;;;;20.82;60.66;99839.63;2076400;28;19925;-37
2021/10/02 04:08:26;;;;;;;;;;;;;;;20.82;60.89;99834.13;2075889;28;19916;-37
2021/10/02 04:09:27;;;;;;;;;;;;;;;20.82;60.84;99839.63;2076886;28;20247;-37
2021/10/02 04:10:27;;;;;;;;;;;;;;;20.82;60.95;99834.13;2075875;28;20367;-37
2021/10/02 04:11:27;;;;;;;;;;;;;;;20.82;60.73;99834.13;2077254;28;19920;-37
2021/10/02 04:12:28;;;;;;;;;;;;;;;20.82;60.86;99830.53;2072387;28;20224;-37
2021/10/02 04:13:28;;;;;;;;;;;;;;;20.82;60.98;99842.34;2073633;28;20196;-37
2021/10/02 04:14:29;;;;;;;;;;;;;;;20.82;60.81;99827.81;2077528;28;19939;-37
2021/10/02 04:15:31;;;;;;;;;;;;;;;20.81;60.84;99824.22;2071016;28;19925;-37
2021/10/02 04:16:31;;;;;;;;;;;;;;;20.81;61.01;99829.69;2076640;28;20446;-37
2021/10/02 04:17:32;;;;;;;;;;;;;;;20.81;60.83;99831.59;2074146;28;19956;-37
2021/10/02 04:18:33;;;;;;;;;;;;;;;20.81;60.78;99821.47;2075849;28;20245;-37
2021/10/02 04:19:34;;;;;;;;;;;;;;;20.82;60.93;99825.06;2075537;28;19917;-37
2021/10/02 04:20:34;;;;;;;;;;;;;;;20.82;60.83;99827.81;2071069;28;20019;-37
2021/10/02 04:21:35;;;;;;;;;;;;;;;20.81;60.87;99826.97;2070506;28;19936;-37
2021/10/02 04:22:35;;;;;;;;;;;;;;;20.81;60.90;99821.47;2070854;28;20205;-37
2021/10/02 04:23:35;;;;;;;;;;;;;;;20.81;60.65;99826.97;2077041;28;19991;-37
2021/10/02 04:24:36;;;;;;;;;;;;;;;20.82;60.83;99822.31;2072360;28;20658;-37
2021/10/02 04:25:37;;;;;;;;;;;;;;;20.81;60.71;99826.97;2076623;28;19920;-37
2021/10/02 04:26:37;;;;;;;;;;;;;;;20.80;60.87;99822.53;2074195;28;19921;-40
2021/10/02 04:27:37;;;;;;;;;;;;;;;20.81;60.70;99826.09;2073919;28;19932;-40
2021/10/02 04:28:38;;;;;;;;;;;;;;;20.81;60.78;99826.09;2074443;28;19917;-37
2021/10/02 04:29:38;;;;;;;;;;;;;;;20.80;60.93;99828.00;2069706;28;20426;-37
2021/10/02 04:30:38;;;;;;;;;;;;;;;20.80;60.99;99836.22;2072747;28;20481;-37
2021/10/02 04:31:39;;;;;;;;;;;;;;;20.81;60.70;99831.59;2066709;28;19917;-37
2021/10/02 04:32:39;;;;;;;;;;;;;;;20.80;60.84;99830.72;2067562;28;19917;-37
2021/10/02 04:33:39;;;;;;;;;;;;;;;20.80;60.68;99828.00;2068705;28;19916;-40
2021/10/02 04:34:40;;;;;;;;;;;;;;;20.81;60.78;99832.44;2069805;28;20422;-40
2021/10/02 04:35:40;;;;;;;;;;;;;;;20.80;60.78;99830.72;2076948;28;19969;-40
2021/10/02 04:36:40;;;;;;;;;;;;;;;20.80;60.91;99830.72;2073360;28;19921;-40
2021/10/02 04:37:40;;;;;;;;;;;;;;;20.82;60.79;99830.53;2068589;28;19965;-37
2021/10/02 04:38:41;;;;;;;;;;;;;;;20.81;60.78;99831.59;2063774;28;20350;-40
2021/10/02 04:39:42;;;;;;;;;;;;;;;20.80;60.88;99830.72;2072264;28;19917;-40
2021/10/02 04:40:42;;;;;;;;;;;;;;;20.81;60.92;99831.59;2075553;28;19921;-40
2021/10/02 04:41:42;;;;;;;;;;;;;;;20.81;60.74;99837.91;2076004;28;19916;-37
2021/10/02 04:42:43;;;;;;;;;;;;;;;20.81;60.64;99837.06;2077097;28;19924;-37
2021/10/02 04:43:44;;;;;;;;;;;;;;;20.80;60.82;99830.72;2075277;28;19921;-37
2021/10/02 04:44:45;;;;;;;;;;;;;;;20.80;60.74;99828.00;2073975;28;20011;-37
2021/10/02 04:45:45;;;;;;;;;;;;;;;20.79;60.70;99820.78;2074884;28;19917;-37
2021/10/02 04:46:45;;;;;;;;;;;;;;;20.79;60.79;99828.16;2075621;28;20019;-37
2021/10/02 04:47:46;;;;;;;;;;;;;;;20.79;60.80;99829.00;2076133;28;19948;-37
2021/10/02 04:48:47;;;;;;;;;;;;;;;20.80;60.80;99827.13;2067982;28;20012;-37
2021/10/02 04:49:49;;;;;;;;;;;;;;;20.79;60.68;99826.25;2067239;28;19921;-37
2021/10/02 04:50:49;;;;;;;;;;;;;;;20.79;60.83;99829.00;2069402;28;20048;-36
2021/10/02 04:51:50;;;;;;;;;;;;;;;20.79;60.99;99820.78;2070414;28;20492;-40
2021/10/02 04:52:54;;;;;;;;;;;;;;;20.80;60.82;99828.00;2074556;28;19948;-40
2021/10/02 04:53:55;;;;;;;;;;;;;;;20.79;60.63;99812.56;2074871;28;19916;-40
2021/10/02 04:54:56;;;;;;;;;;;;;;;20.79;60.92;99815.31;2074165;28;20370;-40
2021/10/02 04:56:00;;;;;;;;;;;;;;;20.79;60.73;99809.81;2076275;28;19932;-40
2021/10/02 04:57:00;;;;;;;;;;;;;;;20.80;60.79;99807.94;2077236;28;20414;-37
2021/10/02 04:58:00;;;;;;;;;;;;;;;20.79;60.84;99807.09;2077154;28;19924;-37
2021/10/02 04:59:00;;;;;;;;;;;;;;;20.79;60.89;99808.97;2076673;28;19917;-37
2021/10/02 05:00:01;;;;;;;;;;;;;;;20.77;60.78;99804.53;2064087;28;19921;-37
2021/10/02 05:01:02;;;;;;;;;;;;;;;20.79;60.81;99806.25;2063342;28;19918;-37
2021/10/02 05:02:03;;;;;;;;;;;;;;;20.79;60.64;99803.50;2073207;28;19968;-37
2021/10/02 05:03:03;;;;;;;;;;;;;;;20.78;60.85;99802.66;2068007;28;19910;-37
2021/10/02 05:04:04;;;;;;;;;;;;;;;20.78;60.85;99799.91;2063445;28;19924;-37
2021/10/02 05:05:04;;;;;;;;;;;;;;;20.78;60.80;99799.91;2074857;28;19927;-37
2021/10/02 05:06:05;;;;;;;;;;;;;;;20.79;60.73;99800.75;2075768;28;20212;-37
2021/10/02 05:07:05;;;;;;;;;;;;;;;20.77;60.87;99796.31;2074466;28;20377;-37
2021/10/02 05:08:06;;;;;;;;;;;;;;;20.78;60.88;99802.66;2078208;28;19921;-37
2021/10/02 05:09:06;;;;;;;;;;;;;;;20.78;60.74;99799.91;2074748;28;20047;-37
2021/10/02 05:10:06;;;;;;;;;;;;;;;20.77;60.59;99792.69;2077063;28;19952;-36
2021/10/02 05:11:07;;;;;;;;;;;;;;;20.76;60.97;99786.38;2075384;28;19921;-37
2021/10/02 05:12:10;;;;;;;;;;;;;;;20.77;60.95;99792.69;2074948;28;19916;-37
2021/10/02 05:13:11;;;;;;;;;;;;;;;20.77;60.59;99795.44;2070486;28;19967;-37
2021/10/02 05:14:11;;;;;;;;;;;;;;;20.76;60.63;99791.00;2075908;28;20484;-37
2021/10/02 05:15:12;;;;;;;;;;;;;;;20.76;60.90;99786.38;2076660;28;19936;-37
2021/10/02 05:16:12;;;;;;;;;;;;;;;20.77;60.91;99787.22;2074686;28;20643;-37
2021/10/02 05:17:15;;;;;;;;;;;;;;;20.77;60.89;99792.69;2074635;28;19974;-37
2021/10/02 05:18:15;;;;;;;;;;;;;;;20.76;60.68;99786.38;2070382;28;20047;-38
2021/10/02 05:19:15;;;;;;;;;;;;;;;20.77;60.63;99781.75;2071276;28;19920;-38
2021/10/02 05:20:16;;;;;;;;;;;;;;;20.77;60.79;99781.75;2066653;28;19909;-38
2021/10/02 05:21:16;;;;;;;;;;;;;;;20.78;60.57;99783.47;2065968;28;21204;-39
2021/10/02 05:22:16;;;;;;;;;;;;;;;20.78;60.53;99778.00;2065995;28;19983;-38
2021/10/02 05:23:17;;;;;;;;;;;;;;;20.78;60.74;99775.25;2069298;28;20103;-39
2021/10/02 05:24:18;;;;;;;;;;;;;;;20.77;60.78;99773.53;2064511;28;19980;-38
2021/10/02 05:25:18;;;;;;;;;;;;;;;20.78;60.60;99772.50;2059765;28;19921;-39
2021/10/02 05:26:18;;;;;;;;;;;;;;;20.78;60.63;99767.03;2067882;28;20386;-40
2021/10/02 05:27:19;;;;;;;;;;;;;;;20.80;60.60;99769.59;2074251;28;19917;-40
2021/10/02 05:28:20;;;;;;;;;;;;;;;20.80;60.40;99769.59;2074733;28;20348;-40
2021/10/02 05:29:20;;;;;;;;;;;;;;;20.79;60.47;99771.47;2074562;28;19923;-39
2021/10/02 05:30:21;;;;;;;;;;;;;;;20.80;60.55;99775.94;2074905;28;19921;-39
2021/10/02 05:31:21;;;;;;;;;;;;;;;20.79;60.52;99763.25;2066256;28;20294;-39
2021/10/02 05:32:22;;;;;;;;;;;;;;;20.80;60.52;99770.47;2071238;28;19924;-39
2021/10/02 05:33:22;;;;;;;;;;;;;;;20.80;60.64;99770.47;2071203;28;19983;-39
2021/10/02 05:34:22;;;;;;;;;;;;;;;20.81;60.55;99772.16;2077009;28;19955;-39
2021/10/02 05:35:22;;;;;;;;;;;;;;;20.81;60.62;99771.31;2074315;28;19917;-39
2021/10/02 05:36:23;;;;;;;;;;;;;;;20.82;60.37;99767.53;2074906;28;20361;-39
2021/10/02 05:37:26;;;;;;;;;;;;;;;20.80;60.70;99765.00;2075106;28;19952;-39
2021/10/02 05:38:26;;;;;;;;;;;;;;;20.81;60.59;99758.47;2071249;28;19916;-38
2021/10/02 05:39:27;;;;;;;;;;;;;;;20.81;60.63;99761.22;2071878;28;19925;-38
2021/10/02 05:40:27;;;;;;;;;;;;;;;20.81;60.63;99761.22;2071029;28;19917;-38
2021/10/02 05:41:28;;;;;;;;;;;;;;;20.82;60.53;99757.44;2070683;28;20769;-38
2021/10/02 05:42:28;;;;;;;;;;;;;;;20.81;60.35;99750.25;2069960;28;19925;-38
2021/10/02 05:43:29;;;;;;;;;;;;;;;20.82;60.15;99748.38;2073695;28;19913;-38
2021/10/02 05:44:30;;;;;;;;;;;;;;;20.81;60.33;99744.78;2075769;28;19960;-38
2021/10/02 05:45:30;;;;;;;;;;;;;;;20.81;60.10;99749.41;2072800;28;20270;-38
2021/10/02 05:46:30;;;;;;;;;;;;;;;20.82;60.30;99751.94;2074807;28;19965;-38
2021/10/02 05:47:31;;;;;;;;;;;;;;;20.82;60.08;99753.84;2074845;28;19925;-37
2021/10/02 05:48:31;;;;;;;;;;;;;;;20.82;60.07;99754.69;2074228;28;19912;-38
2021/10/02 05:49:31;;;;;;;;;;;;;;;20.82;59.97;99756.59;2074442;28;19924;-38
2021/10/02 05:50:32;;;;;;;;;;;;;;;20.82;60.29;99760.19;2072773;28;20305;-38
2021/10/02 05:51:32;;;;;;;;;;;;;;;20.82;60.15;99756.59;2073016;28;19917;-38
2021/10/02 05:52:33;;;;;;;;;;;;;;;20.79;58.96;99759.66;2073303;28;19928;-38
2021/10/02 05:53:33;;;;;;;;;;;;;;;20.79;60.08;99760.53;2074165;28;20027;-38
2021/10/02 05:54:33;;;;;;;;;;;;;;;20.79;59.61;99759.66;2069543;28;20370;-38
2021/10/02 05:55:34;;;;;;;;;;;;;;;20.77;59.62;99749.75;2070163;28;19921;-38
2021/10/02 05:56:35;;;;;;;;;;;;;;;20.77;59.67;99751.59;2069750;28;20340;-38
2021/10/02 05:57:35;;;;;;;;;;;;;;;20.79;59.96;99756.94;2074004;28;19964;-38
2021/10/02 05:58:36;;;;;;;;;;;;;;;20.77;60.06;99755.22;2069348;28;19924;-38
2021/10/02 05:59:36;;;;;;;;;;;;;;;20.77;59.67;99765.31;2075009;28;19916;-38
2021/10/02 06:00:36;;;;;;;;;;;;;;;20.76;59.77;99758.97;2072955;28;20004;-38
2021/10/02 06:01:37;;;;;;;;;;;;;;;20.77;59.74;99759.81;2073876;28;19923;-38
2021/10/02 06:02:37;;;;;;;;;;;;;;;20.76;59.76;99766.34;2067078;28;19939;-38
2021/10/02 06:03:37;;;;;;;;;;;;;;;20.76;59.79;99764.47;2064985;28;19917;-38
2021/10/02 06:04:38;;;;;;;;;;;;;;;20.76;59.92;99763.59;2076651;28;20668;-38
2021/10/02 06:05:38;;;;;;;;;;;;;;;20.75;59.57;99765.50;2074685;28;19924;-38
2021/10/02 06:06:38;;;;;;;;;;;;;;;20.76;59.91;99769.09;2067850;28;19917;-38
2021/10/02 06:07:39;;;;;;;;;;;;;;;20.75;59.87;99764.66;2058758;28;19933;-38
2021/10/02 06:08:40;;;;;;;;;;;;;;;20.76;59.61;99766.34;2059974;28;19925;-39
2021/10/02 06:09:40;;;;;;;;;;;;;;;20.75;59.67;99767.38;2067424;28;20356;-38
2021/10/02 06:10:40;;;;;;;;;;;;;;;20.74;59.60;99765.66;2060723;28;19924;-38
2021/10/02 06:11:41;;;;;;;;;;;;;;;20.74;59.84;99771.13;2073839;28;20050;-38
2021/10/02 06:12:41;;;;;;;;;;;;;;;20.72;59.25;99762.22;2075740;28;20327;-38
2021/10/02 06:13:41;;;;;;;;;;;;;;;20.73;59.32;99763.94;2073565;28;19916;-38
2021/10/02 06:14:42;;;;;;;;;;;;;;;20.71;59.23;99760.50;2075643;28;19934;-38
2021/10/02 06:15:42;;;;;;;;;;;;;;;20.70;59.41;99764.25;2066027;28;20371;-38
2021/10/02 06:16:42;;;;;;;;;;;;;;;20.70;58.91;99764.25;2067164;28;20533;-38
2021/10/02 06:17:42;;;;;;;;;;;;;;;20.68;59.09;99761.72;2065212;28;20230;-38